createdAt,value
2022-08-17T00:00:43.601Z,100318.38
2022-08-17T00:05:43.690Z,100310.72
2022-08-17T00:10:45.476Z,100310.16
2022-08-17T00:15:47.340Z,100309.63
2022-08-17T00:20:48.700Z,100314.16
2022-08-17T00:25:50.329Z,100309.72
2022-08-17T00:30:53.516Z,100313.66
2022-08-17T00:35:55.565Z,100313.88
2022-08-17T00:41:01.971Z,100313.50
2022-08-17T00:46:07.231Z,100312.06
2022-08-17T00:51:15.993Z,100307.09
2022-08-17T00:56:21.091Z,100306.00
2022-08-17T01:01:22.946Z,100311.69
2022-08-17T01:06:27.084Z,100311.47
2022-08-17T01:11:29.778Z,100310.03
2022-08-17T01:16:32.310Z,100303.91
2022-08-17T01:21:43.971Z,100307.31
2022-08-17T01:26:45.465Z,100306.66
2022-08-17T01:31:52.681Z,100307.91
2022-08-17T01:36:54.115Z,100305.19
2022-08-17T01:41:58.515Z,100318.91
2022-08-17T01:46:59.871Z,100316.22
2022-08-17T01:52:10.081Z,100319.88
2022-08-17T01:57:11.497Z,100322.94
2022-08-17T02:02:12.860Z,100324.47
2022-08-17T02:07:32.647Z,100322.84
2022-08-17T02:12:54.110Z,100315.63
2022-08-17T02:17:55.635Z,100318.78
2022-08-17T02:22:58.116Z,100316.31
2022-08-17T02:27:59.507Z,100316.56
2022-08-17T02:33:04.223Z,100314.41
2022-08-17T02:38:07.821Z,100326.81
2022-08-17T02:43:09.435Z,100320.47
2022-08-17T02:48:10.958Z,100322.56
2022-08-17T02:53:12.361Z,100313.69
2022-08-17T02:58:14.193Z,100314.84
2022-08-17T03:03:18.939Z,100309.06
2022-08-17T03:08:20.358Z,100308.59
2022-08-17T03:13:22.443Z,100309.06
2022-08-17T03:18:26.380Z,100307.50
2022-08-17T03:23:29.686Z,100304.34
2022-08-17T03:28:31.709Z,100315.03
2022-08-17T03:33:33.486Z,100311.59
2022-08-17T03:38:39.468Z,100309.19
2022-08-17T03:43:40.971Z,100313.19
2022-08-17T03:49:01.205Z,100310.84
2022-08-17T03:54:21.413Z,100321.16
2022-08-17T03:59:23.589Z,100316.13
2022-08-17T04:04:27.754Z,100322.28
2022-08-17T04:09:29.528Z,100318.88
2022-08-17T04:14:36.134Z,100318.41
2022-08-17T04:19:49.135Z,100311.81
2022-08-17T04:24:50.502Z,100321.06
2022-08-17T04:29:55.635Z,100321.66
2022-08-17T04:34:57.378Z,100318.47
2022-08-17T04:40:17.283Z,100316.63
2022-08-17T04:45:18.759Z,100324.63
2022-08-17T04:50:20.101Z,100322.78
2022-08-17T04:55:21.677Z,100325.75
2022-08-17T05:00:25.746Z,100326.03
2022-08-17T05:05:31.841Z,100321.34
2022-08-17T05:10:35.107Z,100319.91
2022-08-17T05:15:39.506Z,100325.31
2022-08-17T05:20:46.707Z,100320.78
2022-08-17T05:25:49.758Z,100302.94
2022-08-17T05:30:52.008Z,100310.44
2022-08-17T05:35:54.589Z,100311.91
2022-08-17T05:40:56.551Z,100311.91
2022-08-17T05:46:16.455Z,100309.03
2022-08-17T05:51:28.032Z,100324.69
2022-08-17T05:56:51.707Z,100321.53
2022-08-17T06:01:57.985Z,100319.69
2022-08-17T06:07:18.885Z,100323.41
2022-08-17T06:12:29.074Z,100312.81
2022-08-17T06:17:31.125Z,100314.44
2022-08-17T06:22:34.851Z,100314.41
2022-08-17T06:27:38.710Z,100314.09
2022-08-17T06:32:42.302Z,100315.59
2022-08-17T06:38:02.340Z,100320.84
2022-08-17T06:43:06.680Z,100316.72
2022-08-17T06:48:12.668Z,100311.19
2022-08-17T06:53:29.369Z,100311.41
2022-08-17T06:58:32.612Z,100313.25
2022-08-17T07:03:54.353Z,100316.44
2022-08-17T07:09:00.012Z,100320.38
2022-08-17T07:14:18.841Z,100332.88
2022-08-17T07:19:25.491Z,100338.88
2022-08-17T07:24:33.181Z,100359.84
2022-08-17T07:29:46.657Z,100369.88
2022-08-17T07:35:11.112Z,100363.72
2022-08-17T07:40:17.527Z,100383.19
2022-08-17T07:45:37.422Z,100388.56
2022-08-17T07:50:39.481Z,100371.28
2022-08-17T07:55:41.802Z,100386.06
2022-08-17T08:00:43.257Z,100390.63
2022-08-17T08:05:52.703Z,100405.75
2022-08-17T08:10:59.223Z,100409.25
2022-08-17T08:16:21.337Z,100424.44
2022-08-17T08:21:41.781Z,100417.28
2022-08-17T08:27:01.326Z,100424.47
2022-08-17T08:32:07.662Z,100428.44
2022-08-17T08:37:16.343Z,100439.38
2022-08-17T08:42:38.355Z,100430.59
2022-08-17T08:47:58.888Z,100443.34
2022-08-17T08:53:23.427Z,100446.81
2022-08-17T08:58:32.146Z,100440.38
2022-08-17T09:03:53.463Z,100430.28
2022-08-17T09:08:55.497Z,100442.56
2022-08-17T09:14:21.849Z,100444.59
2022-08-17T09:19:38.117Z,100450.63
2022-08-17T09:24:43.682Z,100437.91
2022-08-17T09:29:49.816Z,100421.69
2022-08-17T09:34:53.556Z,100421.28
2022-08-17T09:40:08.402Z,100416.59
2022-08-17T09:45:16.116Z,100416.50
2022-08-17T09:51:01.564Z,100415.78
2022-08-17T09:56:03.394Z,100406.41
2022-08-17T10:01:17.048Z,100415.56
2022-08-17T10:06:21.952Z,100428.97
2022-08-17T10:11:50.381Z,100440.06
2022-08-17T10:16:56.208Z,100441.50
2022-08-17T10:22:34.964Z,100448.50
2022-08-17T10:27:49.112Z,100442.97
2022-08-17T10:33:02.761Z,100434.75
2022-08-17T10:38:04.088Z,100423.94
2022-08-17T10:43:29.352Z,100427.59
2022-08-17T10:48:33.254Z,100423.41
2022-08-17T10:53:34.724Z,100410.31
2022-08-17T10:58:57.148Z,100412.53
2022-08-17T11:04:03.517Z,100426.63
2022-08-17T11:09:10.828Z,100424.72
2022-08-17T11:14:17.070Z,100434.81
2022-08-17T11:19:37.359Z,100416.69
2022-08-17T11:24:40.370Z,100418.81
2022-08-17T11:29:49.439Z,100403.63
2022-08-17T11:35:06.850Z,100406.47
2022-08-17T11:40:11.547Z,100396.41
2022-08-17T11:45:33.102Z,100403.94
2022-08-17T11:51:15.574Z,100395.03
2022-08-17T11:56:30.193Z,100404.50
2022-08-17T12:01:31.537Z,100409.97
2022-08-17T12:06:45.358Z,100419.91
2022-08-17T12:12:01.579Z,100414.75
2022-08-17T12:17:09.923Z,100406.09
2022-08-17T12:22:23.489Z,100411.53
2022-08-17T12:27:46.253Z,100401.69
2022-08-17T12:32:54.845Z,100396.78
2022-08-17T12:38:00.256Z,100404.38
2022-08-17T12:43:07.597Z,100398.44
2022-08-17T12:48:11.007Z,100391.63
2022-08-17T12:53:17.335Z,100387.81
2022-08-17T12:58:21.129Z,100386.19
2022-08-17T13:03:24.491Z,100381.06
2022-08-17T13:08:37.235Z,100383.06
2022-08-17T13:13:40.551Z,100384.53
2022-08-17T13:18:55.572Z,100376.19
2022-08-17T13:24:00.120Z,100375.63
2022-08-17T13:29:05.327Z,100384.06
2022-08-17T13:34:31.071Z,100384.28
2022-08-17T13:39:40.578Z,100387.59
2022-08-17T13:44:42.698Z,100386.97
2022-08-17T13:49:49.009Z,100379.09
2022-08-17T13:54:51.444Z,100365.41
2022-08-17T14:00:09.258Z,100371.34
2022-08-17T14:05:10.615Z,100378.09
2022-08-17T14:10:17.320Z,100380.47
2022-08-17T14:15:20.597Z,100376.69
2022-08-17T14:20:22.415Z,100375.25
2022-08-17T14:25:26.312Z,100368.94
2022-08-17T14:30:29.841Z,100352.63
2022-08-17T14:35:31.580Z,100356.97
2022-08-17T14:40:34.661Z,100363.91
2022-08-17T14:45:36.037Z,100375.72
2022-08-17T14:50:40.584Z,100368.97
2022-08-17T14:55:42.410Z,100371.03
2022-08-17T15:00:43.794Z,100355.53
2022-08-17T15:05:46.728Z,100365.94
2022-08-17T15:10:49.174Z,100361.34
2022-08-17T15:15:50.633Z,100358.19
2022-08-17T15:20:52.718Z,100373.16
2022-08-17T15:25:54.397Z,100364.97
2022-08-17T15:30:55.785Z,100359.69
2022-08-17T15:35:59.025Z,100355.00
2022-08-17T15:41:00.377Z,100352.28
2022-08-17T15:46:01.800Z,100348.66
2022-08-17T15:51:03.152Z,100348.16
2022-08-17T15:56:05.365Z,100360.44
2022-08-17T16:01:18.211Z,100357.69
2022-08-17T16:06:28.684Z,100368.06
2022-08-17T16:11:30.235Z,100373.09
2022-08-17T16:16:31.594Z,100372.06
2022-08-17T16:21:43.201Z,100369.03
2022-08-17T16:26:44.715Z,100359.09
2022-08-17T16:31:46.093Z,100352.19
2022-08-17T16:36:54.675Z,100351.38
2022-08-17T16:41:57.638Z,100352.44
2022-08-17T16:47:00.707Z,100339.16
2022-08-17T16:52:03.256Z,100343.13
2022-08-17T16:57:05.243Z,100340.44
2022-08-17T17:02:11.219Z,100335.59
2022-08-17T17:07:33.652Z,100347.31
2022-08-17T17:13:01.245Z,100356.66
2022-08-17T17:18:06.194Z,100370.81
2022-08-17T17:23:12.683Z,100369.38
2022-08-17T17:28:24.885Z,100371.03
2022-08-17T17:33:29.123Z,100367.28
2022-08-17T17:38:39.252Z,100369.97
2022-08-17T17:43:41.362Z,100387.41
2022-08-17T17:48:42.753Z,100380.81
2022-08-17T17:54:02.896Z,100384.31
2022-08-17T17:59:12.791Z,100392.91
2022-08-17T18:04:31.907Z,100388.81
2022-08-17T18:09:34.029Z,100391.47
2022-08-17T18:15:02.072Z,100382.91
2022-08-17T18:20:07.052Z,100392.19
2022-08-17T18:25:28.409Z,100390.97
2022-08-17T18:30:29.869Z,100399.28
2022-08-17T18:35:32.588Z,100405.91
2022-08-17T18:40:36.116Z,100415.94
2022-08-17T18:45:50.045Z,100420.44
2022-08-17T18:50:53.583Z,100416.34
2022-08-17T18:56:13.659Z,100422.38
2022-08-17T19:01:19.226Z,100424.34
2022-08-17T19:06:28.233Z,100441.50
2022-08-17T19:11:31.978Z,100449.81
2022-08-17T19:16:33.330Z,100462.44
2022-08-17T19:21:40.354Z,100480.34
2022-08-17T19:26:54.392Z,100489.72
2022-08-17T19:31:58.694Z,100500.19
2022-08-17T19:37:03.657Z,100498.91
2022-08-17T19:42:12.477Z,100498.97
2022-08-17T19:47:54.434Z,100508.00
2022-08-17T19:53:02.023Z,100503.53
2022-08-17T19:58:08.007Z,100506.22
2022-08-17T20:03:41.812Z,100506.53
2022-08-17T20:08:50.420Z,100512.94
2022-08-17T20:14:13.243Z,100521.44
2022-08-17T20:19:28.324Z,100536.84
2022-08-17T20:24:32.790Z,100537.94
2022-08-17T20:29:54.080Z,100549.06
2022-08-17T20:35:14.097Z,100550.63
2022-08-17T20:40:19.271Z,100553.81
2022-08-17T20:45:20.628Z,100556.97
2022-08-17T20:50:36.101Z,100555.63
2022-08-17T20:55:39.349Z,100542.34
2022-08-17T21:00:56.515Z,100549.19
2022-08-17T21:06:14.445Z,100561.59
2022-08-17T21:11:56.748Z,100566.31
2022-08-17T21:17:07.896Z,100574.22
2022-08-17T21:22:28.500Z,100573.59
2022-08-17T21:27:37.668Z,100586.28
2022-08-17T21:32:40.483Z,100592.44
2022-08-17T21:37:48.367Z,100596.22
2022-08-17T21:42:52.695Z,100589.28
2022-08-17T21:48:07.956Z,100586.91
2022-08-17T21:53:13.165Z,100594.81
2022-08-17T21:58:29.290Z,100603.28
2022-08-17T22:03:31.148Z,100603.78
2022-08-17T22:08:32.508Z,100603.25
2022-08-17T22:13:37.481Z,100594.25
2022-08-17T22:18:39.930Z,100591.53
2022-08-17T22:24:01.070Z,100596.31
2022-08-17T22:29:02.481Z,100601.28
2022-08-17T22:34:03.782Z,100599.91
2022-08-17T22:39:10.919Z,100594.81
2022-08-17T22:44:14.291Z,100606.28
2022-08-17T22:49:21.919Z,100598.41
2022-08-17T22:54:41.775Z,100614.44
2022-08-17T22:59:43.671Z,100612.47
2022-08-17T23:04:47.713Z,100625.34
2022-08-17T23:09:49.146Z,100629.75
2022-08-17T23:14:55.936Z,100633.84
2022-08-17T23:19:57.350Z,100629.78
2022-08-17T23:24:59.772Z,100640.81
2022-08-17T23:30:01.313Z,100642.06
2022-08-17T23:35:02.667Z,100633.56
2022-08-17T23:40:05.374Z,100647.03
2022-08-17T23:45:07.767Z,100631.84
2022-08-17T23:50:09.401Z,100625.94
2022-08-17T23:55:10.821Z,100625.06
